NCAR-RAP Real-Time Weather Data

Output produced by METARs form (20 January 2018  03:37 UTC)
found at http://weather.rap.ucar.edu/surface/
 
KGGW 200253Z AUTO 22007KT 10SM CLR M02/M04 A2970 RMK AO2 SLP082 T10171044 53009
KGGW 200153Z AUTO 22005KT 10SM CLR M02/M04 A2969 RMK AO2 SLP078 T10171044
 
KOLF 200253Z AUTO 25007KT 10SM CLR 00/M03 A2971 RMK AO2 SLP081 T00001028 51011
KOLF 200153Z AUTO 26007KT 10SM CLR 01/M03 A2970 RMK AO2 SLP078 T00061028
 
KSDY 200256Z AUTO 00000KT 10SM BKN120 01/M01 A2971 RMK AO2 SLP084 T00061011 51009 FZRANO
KSDY 200156Z AUTO 23008KT 10SM CLR 02/M01 A2970 RMK AO2 SLP079 T00221011 FZRANO
 
KJDN 200248Z AUTO 26003KT 00/M02 A2973 RMK AO1 SLP092 T00001022 51012
KJDN 200148Z AUTO 25006KT 01/M01 A2971 RMK AO1 SLP088 T00061011
 
KGDV 200256Z AUTO 20003KT 10SM BKN100 01/M01 A2974 RMK AO2 SLP090 T00111006 51012 FZRANO
KGDV 200156Z AUTO 17004KT 10SM OVC110 01/M01 A2972 RMK AO2 SLP086 T00061006 FZRANO